createdAt,value
2023-02-21T00:02:11.049Z,99.90
2023-02-21T00:04:58.206Z,99.90
2023-02-21T00:07:44.987Z,99.90
2023-02-21T00:10:33.659Z,99.90
2023-02-21T00:13:20.079Z,99.90
2023-02-21T00:16:06.550Z,99.90
2023-02-21T00:18:56.354Z,99.90
2023-02-21T00:21:43.095Z,99.90
2023-02-21T00:24:33.049Z,99.90
2023-02-21T00:27:19.316Z,99.90
2023-02-21T00:30:06.605Z,99.90
2023-02-21T00:32:52.720Z,99.90
2023-02-21T00:35:40.362Z,99.90
2023-02-21T00:38:26.858Z,99.90
2023-02-21T00:41:12.807Z,99.90
2023-02-21T00:43:59.890Z,99.90
2023-02-21T00:46:46.099Z,99.90
2023-02-21T00:49:33.223Z,99.90
2023-02-21T00:52:20.876Z,99.90
2023-02-21T00:55:06.585Z,99.90
2023-02-21T00:57:51.955Z,99.90
2023-02-21T01:00:39.593Z,99.90
2023-02-21T01:03:26.941Z,99.90
2023-02-21T01:06:16.124Z,99.90
2023-02-21T01:09:05.450Z,99.90
2023-02-21T01:11:52.941Z,99.90
2023-02-21T01:14:39.052Z,99.90
2023-02-21T01:17:25.870Z,99.90
2023-02-21T01:20:12.494Z,99.90
2023-02-21T01:22:58.752Z,99.90
2023-02-21T01:25:46.634Z,99.90
2023-02-21T01:28:32.361Z,99.90
2023-02-21T01:31:23.292Z,99.90
2023-02-21T01:34:08.774Z,99.90
2023-02-21T01:36:54.164Z,99.90
2023-02-21T01:39:40.184Z,99.90
2023-02-21T01:42:29.708Z,99.90
2023-02-21T01:46:04.670Z,99.90
2023-02-21T01:48:53.783Z,99.90
2023-02-21T01:51:46.358Z,99.90
2023-02-21T01:54:32.175Z,99.90
2023-02-21T01:57:20.611Z,99.90
2023-02-21T02:00:10.408Z,99.90
2023-02-21T02:03:11.316Z,99.90
2023-02-21T02:05:58.362Z,99.90
2023-02-21T02:08:48.030Z,99.90
2023-02-21T02:11:45.231Z,99.90
2023-02-21T02:14:44.809Z,99.90
2023-02-21T02:17:25.378Z,99.90
2023-02-21T02:20:12.275Z,99.90
2023-02-21T02:22:59.441Z,99.90
2023-02-21T02:25:42.885Z,99.90
2023-02-21T02:28:38.025Z,99.90
2023-02-21T02:31:48.645Z,99.90
2023-02-21T02:34:43.207Z,99.90
2023-02-21T02:37:20.105Z,99.90
2023-02-21T02:39:53.216Z,99.90
2023-02-21T02:42:34.904Z,99.90
2023-02-21T02:45:13.924Z,99.90
2023-02-21T02:47:45.526Z,99.90
2023-02-21T02:50:17.852Z,99.90
2023-02-21T02:52:55.134Z,99.90
2023-02-21T02:55:36.201Z,99.90
2023-02-21T02:58:05.110Z,99.90
2023-02-21T03:00:36.156Z,99.90
2023-02-21T03:03:23.388Z,99.90
2023-02-21T03:06:03.031Z,99.90
2023-02-21T03:08:44.110Z,99.90
2023-02-21T03:11:18.294Z,99.90
2023-02-21T03:13:50.565Z,99.90
2023-02-21T03:16:26.890Z,99.90
2023-02-21T03:19:02.777Z,99.90
2023-02-21T03:21:39.788Z,99.90
2023-02-21T03:24:11.893Z,99.90
2023-02-21T03:26:43.914Z,99.90
2023-02-21T03:29:33.993Z,99.90
2023-02-21T03:32:11.954Z,99.90
2023-02-21T03:34:41.039Z,99.90
2023-02-21T03:37:23.033Z,99.90
2023-02-21T03:39:51.946Z,99.90
2023-02-21T03:42:20.856Z,99.90
2023-02-21T03:44:49.787Z,99.90
2023-02-21T03:47:18.377Z,99.90
2023-02-21T03:49:49.363Z,99.90
2023-02-21T03:52:19.888Z,99.90
2023-02-21T03:54:49.101Z,99.90
2023-02-21T03:57:21.158Z,99.90
2023-02-21T03:59:52.199Z,99.90
2023-02-21T04:02:20.944Z,99.90
2023-02-21T04:04:50.058Z,99.90
2023-02-21T04:07:22.609Z,99.90
2023-02-21T04:09:52.258Z,99.90
2023-02-21T04:12:27.899Z,99.90
2023-02-21T04:15:00.973Z,99.90
2023-02-21T04:17:29.992Z,99.90
2023-02-21T04:20:00.502Z,99.90
2023-02-21T04:22:30.552Z,99.90
2023-02-21T04:24:59.438Z,99.90
2023-02-21T04:27:28.151Z,99.90
2023-02-21T04:29:58.417Z,99.90
2023-02-21T04:32:28.128Z,99.90
2023-02-21T04:34:57.738Z,99.90
2023-02-21T04:37:26.636Z,99.90
2023-02-21T04:39:57.455Z,99.90
2023-02-21T04:42:25.743Z,99.90
2023-02-21T04:45:00.136Z,99.90
2023-02-21T04:47:30.382Z,99.90
2023-02-21T04:49:58.919Z,99.90
2023-02-21T04:52:27.544Z,99.90
2023-02-21T04:54:57.389Z,99.90
2023-02-21T04:57:26.552Z,99.90
2023-02-21T04:59:59.102Z,99.90
2023-02-21T05:02:28.810Z,99.90
2023-02-21T05:04:57.185Z,99.90
2023-02-21T05:07:28.453Z,99.90
2023-02-21T05:09:58.616Z,99.90
2023-02-21T05:12:27.096Z,99.90
2023-02-21T05:14:56.048Z,99.90
2023-02-21T05:17:25.716Z,99.90
2023-02-21T05:19:55.268Z,99.90
2023-02-21T05:22:23.818Z,99.90
2023-02-21T05:24:52.306Z,99.90
2023-02-21T05:27:23.142Z,99.90
2023-02-21T05:29:54.260Z,99.90
2023-02-21T05:32:24.482Z,99.90
2023-02-21T05:34:55.262Z,99.90
2023-02-21T05:37:23.704Z,99.90
2023-02-21T05:39:52.335Z,99.90
2023-02-21T05:42:22.090Z,99.90
2023-02-21T05:44:50.424Z,99.90
2023-02-21T05:47:19.150Z,99.90
2023-02-21T05:49:47.539Z,99.90
2023-02-21T05:52:18.280Z,99.90
2023-02-21T05:54:46.976Z,99.90
2023-02-21T05:57:15.269Z,99.90
2023-02-21T05:59:48.098Z,99.90
2023-02-21T06:02:16.850Z,99.90
2023-02-21T06:04:45.216Z,99.90
2023-02-21T06:07:13.661Z,99.90
2023-02-21T06:09:41.978Z,99.90
2023-02-21T06:12:10.286Z,99.90
2023-02-21T06:14:39.213Z,99.90
2023-02-21T06:17:09.528Z,99.90
2023-02-21T06:19:38.251Z,99.90
2023-02-21T06:22:07.539Z,99.90
2023-02-21T06:24:36.135Z,99.90
2023-02-21T06:27:05.353Z,99.90
2023-02-21T06:29:33.707Z,99.90
2023-02-21T06:32:02.528Z,99.90
2023-02-21T06:34:33.402Z,99.90
2023-02-21T06:37:02.130Z,99.90
2023-02-21T06:39:30.657Z,99.90
2023-02-21T06:41:59.905Z,99.90
2023-02-21T06:44:28.807Z,99.90
2023-02-21T06:46:57.549Z,99.90
2023-02-21T06:49:26.249Z,99.90
2023-02-21T06:51:56.693Z,99.90
2023-02-21T06:54:25.674Z,99.90
2023-02-21T06:56:54.587Z,99.90
2023-02-21T06:59:22.960Z,99.90
2023-02-21T07:01:51.666Z,99.90
2023-02-21T07:04:20.426Z,99.90
2023-02-21T07:06:49.062Z,99.90
2023-02-21T07:09:19.404Z,99.90
2023-02-21T07:11:48.036Z,99.90
2023-02-21T07:14:16.932Z,99.90
2023-02-21T07:16:45.336Z,99.90
2023-02-21T07:21:44.784Z,99.90
2023-02-21T07:24:13.357Z,99.90
2023-02-21T07:26:43.464Z,99.90
2023-02-21T07:29:12.091Z,99.90
2023-02-21T07:31:40.655Z,99.90
2023-02-21T07:34:09.433Z,99.90
2023-02-21T07:36:40.307Z,99.90
2023-02-21T07:39:10.294Z,99.90
2023-02-21T07:41:38.773Z,99.90
2023-02-21T07:44:10.328Z,99.90
2023-02-21T07:46:42.241Z,99.90
2023-02-21T07:49:10.581Z,99.90
2023-02-21T07:51:38.943Z,99.90
2023-02-21T07:54:07.496Z,99.90
2023-02-21T07:56:36.084Z,99.90
2023-02-21T07:59:05.669Z,99.90
2023-02-21T08:01:35.727Z,99.90
2023-02-21T08:04:04.621Z,99.90
2023-02-21T08:06:34.883Z,99.90
2023-02-21T08:09:03.590Z,99.90
2023-02-21T08:11:32.949Z,99.90
2023-02-21T08:14:01.956Z,99.90
2023-02-21T08:16:30.298Z,99.90
2023-02-21T08:19:00.382Z,99.90
2023-02-21T08:21:29.101Z,99.90
2023-02-21T08:23:58.825Z,99.90
2023-02-21T08:26:27.355Z,99.90
2023-02-21T08:28:55.962Z,99.90
2023-02-21T08:31:24.742Z,99.90
2023-02-21T08:33:54.012Z,99.90
2023-02-21T08:36:25.914Z,99.90
2023-02-21T08:38:54.212Z,99.90
2023-02-21T08:41:22.474Z,99.90
2023-02-21T08:43:51.046Z,99.90
2023-02-21T08:46:20.170Z,99.90
2023-02-21T08:48:48.842Z,99.90
2023-02-21T08:51:18.490Z,99.90
2023-02-21T08:53:48.343Z,99.90
2023-02-21T08:56:23.912Z,99.90
2023-02-21T08:58:54.099Z,99.90
2023-02-21T09:01:23.867Z,99.90
2023-02-21T09:03:54.229Z,99.90
2023-02-21T09:06:22.506Z,99.90
2023-02-21T09:08:53.475Z,99.90
2023-02-21T09:11:22.060Z,99.90
2023-02-21T09:13:50.884Z,99.90
2023-02-21T09:16:20.335Z,99.90
2023-02-21T09:18:56.810Z,99.90
2023-02-21T09:21:25.987Z,99.90
2023-02-21T09:23:59.211Z,99.90
2023-02-21T09:26:31.809Z,99.90
2023-02-21T09:29:00.377Z,99.90
2023-02-21T09:31:29.531Z,99.90
2023-02-21T09:33:58.885Z,99.90
2023-02-21T09:36:28.335Z,99.90
2023-02-21T09:38:59.983Z,99.90
2023-02-21T09:41:29.092Z,99.90
2023-02-21T09:43:57.606Z,99.90
2023-02-21T09:46:35.664Z,99.90
2023-02-21T09:49:06.394Z,99.90
2023-02-21T09:51:37.159Z,99.90
2023-02-21T09:54:08.707Z,99.90
2023-02-21T09:56:43.089Z,99.90
2023-02-21T09:59:13.639Z,99.90
2023-02-21T10:01:54.427Z,99.90
2023-02-21T10:04:34.303Z,99.90
2023-02-21T10:07:09.456Z,99.90
2023-02-21T10:09:47.002Z,99.90
2023-02-21T10:12:29.346Z,99.90
2023-02-21T10:15:16.618Z,99.90
2023-02-21T10:17:51.674Z,99.90
2023-02-21T10:20:28.185Z,99.90
2023-02-21T10:22:57.493Z,99.90
2023-02-21T10:25:31.680Z,99.90
2023-02-21T10:28:03.625Z,99.90
2023-02-21T10:30:36.683Z,99.90
2023-02-21T10:33:10.002Z,99.90
2023-02-21T10:35:40.362Z,99.90
2023-02-21T10:38:15.382Z,99.90
2023-02-21T10:40:47.916Z,99.90
2023-02-21T10:43:20.996Z,99.90
2023-02-21T10:45:54.805Z,99.90
2023-02-21T10:48:26.747Z,99.90
2023-02-21T10:51:08.209Z,99.90
2023-02-21T10:53:39.129Z,99.90
2023-02-21T10:56:24.912Z,99.90
2023-02-21T10:58:57.020Z,99.90
2023-02-21T11:01:35.460Z,99.90
2023-02-21T11:04:08.094Z,99.90
2023-02-21T11:06:42.286Z,99.90
2023-02-21T11:09:31.881Z,99.90
2023-02-21T11:12:17.564Z,99.90
2023-02-21T11:14:47.570Z,99.90
2023-02-21T11:17:19.334Z,99.90
2023-02-21T11:19:53.347Z,99.90
2023-02-21T11:22:25.448Z,99.90
2023-02-21T11:25:05.694Z,99.90
2023-02-21T11:27:38.040Z,99.90
2023-02-21T11:30:17.742Z,99.90
2023-02-21T11:32:53.783Z,99.90
2023-02-21T11:35:27.285Z,99.90
2023-02-21T11:37:57.754Z,99.90
2023-02-21T11:40:32.395Z,99.90
2023-02-21T11:43:29.920Z,99.70
2023-02-21T11:46:11.955Z,94.00
2023-02-21T11:48:47.262Z,81.50
2023-02-21T11:51:28.038Z,62.80
2023-02-21T11:53:56.924Z,31.10
2023-02-21T11:56:35.839Z,20.10
2023-02-21T11:59:17.926Z,7.40
2023-02-21T12:01:57.208Z,8.40
2023-02-21T12:04:47.932Z,2.70
2023-02-21T12:07:21.338Z,1.00
2023-02-21T12:09:56.420Z,1.00
2023-02-21T12:12:38.934Z,1.00
2023-02-21T12:15:25.662Z,1.00
2023-02-21T12:18:07.626Z,1.00
2023-02-21T12:20:56.269Z,1.00
2023-02-21T12:23:30.905Z,1.00
2023-02-21T12:26:14.625Z,1.00
2023-02-21T12:29:00.737Z,1.00
2023-02-21T12:31:46.254Z,1.00
2023-02-21T12:34:26.296Z,99.90
2023-02-21T12:37:10.830Z,99.90
2023-02-21T12:39:59.456Z,99.90
2023-02-21T12:42:43.499Z,99.90
2023-02-21T12:45:30.617Z,99.90
2023-02-21T12:48:05.595Z,14.30
2023-02-21T12:50:38.293Z,56.90
2023-02-21T12:53:12.553Z,99.90
2023-02-21T12:55:44.468Z,1.00
2023-02-21T12:58:19.851Z,1.00
2023-02-21T13:00:53.035Z,16.30
2023-02-21T13:03:37.741Z,39.10
2023-02-21T13:06:15.302Z,99.90
2023-02-21T13:08:55.335Z,99.90
2023-02-21T13:11:28.697Z,99.90
2023-02-21T13:13:59.632Z,99.90
2023-02-21T13:16:30.999Z,99.90
2023-02-21T13:19:05.733Z,99.90
2023-02-21T13:21:49.549Z,99.90
2023-02-21T13:24:31.366Z,99.90
2023-02-21T13:27:22.209Z,99.90
2023-02-21T13:29:51.219Z,99.90
2023-02-21T13:32:21.514Z,99.90
2023-02-21T13:34:57.281Z,99.90
2023-02-21T13:37:29.612Z,99.90
2023-02-21T13:40:07.763Z,99.90
2023-02-21T13:42:39.969Z,99.90
2023-02-21T13:45:20.397Z,99.90
2023-02-21T13:48:19.280Z,99.90
2023-02-21T13:50:53.592Z,99.90
2023-02-21T13:53:24.002Z,99.90
2023-02-21T13:56:41.578Z,99.90
2023-02-21T13:59:33.147Z,99.90
2023-02-21T14:02:30.742Z,99.90
2023-02-21T14:05:09.001Z,99.90
2023-02-21T14:08:14.118Z,99.90
2023-02-21T14:10:47.983Z,99.90
2023-02-21T14:13:24.368Z,99.90
2023-02-21T14:16:02.116Z,99.90
2023-02-21T14:18:38.261Z,99.90
2023-02-21T14:21:11.202Z,99.90
2023-02-21T14:23:44.747Z,99.90
2023-02-21T14:26:40.721Z,99.90
2023-02-21T14:29:17.237Z,99.90
2023-02-21T14:32:05.027Z,99.90
2023-02-21T14:34:37.671Z,99.90
2023-02-21T14:37:17.352Z,99.90
2023-02-21T14:39:54.895Z,99.90
2023-02-21T14:42:50.007Z,99.90
2023-02-21T14:45:33.082Z,99.90
2023-02-21T14:48:20.076Z,99.90
2023-02-21T14:51:19.676Z,99.90
2023-02-21T14:54:10.745Z,99.90
2023-02-21T14:56:50.985Z,99.90
2023-02-21T14:59:52.292Z,99.90
2023-02-21T15:02:29.551Z,99.90
2023-02-21T15:05:07.456Z,99.90
2023-02-21T15:07:47.000Z,99.90
2023-02-21T15:10:20.895Z,99.90
2023-02-21T15:12:52.150Z,99.90
2023-02-21T15:15:24.262Z,99.90
2023-02-21T15:18:04.833Z,99.90
2023-02-21T15:20:35.695Z,99.90
2023-02-21T15:23:13.717Z,99.90
2023-02-21T15:25:45.924Z,1.00
2023-02-21T15:28:35.475Z,1.00
2023-02-21T15:31:08.239Z,1.00
2023-02-21T15:33:40.735Z,99.90
2023-02-21T15:36:17.154Z,99.90
2023-02-21T15:38:50.229Z,1.00
2023-02-21T15:41:31.162Z,1.00
2023-02-21T15:44:04.883Z,1.00
2023-02-21T15:46:41.973Z,99.90
2023-02-21T15:49:20.102Z,1.00
2023-02-21T15:51:50.461Z,99.90
2023-02-21T15:54:27.394Z,1.00
2023-02-21T15:57:04.462Z,1.00
2023-02-21T15:59:34.798Z,1.00
2023-02-21T16:02:16.102Z,1.00
2023-02-21T16:04:47.331Z,1.00
2023-02-21T16:07:21.071Z,99.90
2023-02-21T16:09:52.220Z,1.00
2023-02-21T16:12:29.906Z,22.60
2023-02-21T16:15:02.100Z,99.90
2023-02-21T16:17:33.983Z,1.00
2023-02-21T16:20:17.584Z,1.00
2023-02-21T16:25:39.677Z,1.00
2023-02-21T16:28:14.421Z,1.00
2023-02-21T16:30:46.688Z,1.00
2023-02-21T16:33:15.508Z,1.00
2023-02-21T16:35:45.542Z,1.00
2023-02-21T16:38:16.738Z,1.00
2023-02-21T16:40:47.258Z,1.00
2023-02-21T16:43:19.592Z,10.60
2023-02-21T16:45:49.861Z,8.20
2023-02-21T16:52:01.592Z,1.00
2023-02-21T16:54:30.407Z,6.80
2023-02-21T16:57:06.334Z,13.80
2023-02-21T16:59:54.267Z,19.80
2023-02-21T17:02:25.083Z,11.20
2023-02-21T17:05:21.386Z,1.00
2023-02-21T17:08:17.816Z,1.00
2023-02-21T17:17:53.427Z,5.20
2023-02-21T17:20:40.936Z,36.80
2023-02-21T17:27:06.011Z,46.90
2023-02-21T17:29:36.530Z,48.40
2023-02-21T17:32:11.774Z,53.20
2023-02-21T17:38:01.832Z,78.30
2023-02-21T17:40:48.362Z,60.80
2023-02-21T17:43:18.035Z,90.20
2023-02-21T17:45:48.999Z,90.30
2023-02-21T17:48:23.435Z,86.90
2023-02-21T17:50:54.673Z,93.00
2023-02-21T17:53:26.605Z,94.20
2023-02-21T17:56:27.442Z,99.90
2023-02-21T17:59:37.521Z,99.90
2023-02-21T18:07:15.069Z,99.90
2023-02-21T18:10:14.917Z,99.90
2023-02-21T18:12:44.716Z,99.90
2023-02-21T18:15:15.515Z,99.90
2023-02-21T18:17:44.468Z,99.90
2023-02-21T18:20:15.127Z,99.90
2023-02-21T18:22:48.003Z,99.90
2023-02-21T18:25:35.309Z,99.90
2023-02-21T18:28:07.201Z,99.90
2023-02-21T18:30:35.624Z,99.90
2023-02-21T18:33:05.327Z,99.90
2023-02-21T18:35:41.405Z,99.90
2023-02-21T18:38:11.826Z,99.90
2023-02-21T18:40:45.565Z,99.90
2023-02-21T18:43:21.316Z,99.90
2023-02-21T18:45:51.533Z,99.90
2023-02-21T18:48:35.850Z,99.90
2023-02-21T18:51:17.676Z,99.90
2023-02-21T18:54:22.075Z,99.90
2023-02-21T18:57:09.549Z,99.90
2023-02-21T18:59:50.157Z,99.90
2023-02-21T19:02:22.499Z,99.90
2023-02-21T19:04:56.692Z,99.90
2023-02-21T19:07:37.020Z,99.90
2023-02-21T19:10:41.209Z,99.90
2023-02-21T19:13:13.422Z,99.90
2023-02-21T19:16:15.452Z,99.90
2023-02-21T19:18:44.328Z,99.90
2023-02-21T19:21:13.077Z,99.90
2023-02-21T19:23:47.358Z,99.90
2023-02-21T19:26:21.940Z,99.90
2023-02-21T19:28:59.129Z,99.90
2023-02-21T19:31:38.045Z,99.90
2023-02-21T19:34:06.730Z,99.90
2023-02-21T19:36:43.508Z,99.90
2023-02-21T19:39:37.362Z,99.90
2023-02-21T19:42:09.156Z,99.90
2023-02-21T19:44:54.232Z,99.90
2023-02-21T19:47:42.998Z,99.90
2023-02-21T19:50:38.304Z,99.90
2023-02-21T19:53:07.338Z,99.90
2023-02-21T19:55:35.716Z,99.90
2023-02-21T19:58:07.388Z,99.90
2023-02-21T20:00:39.906Z,99.90
2023-02-21T20:03:09.991Z,99.90
2023-02-21T20:05:49.430Z,99.90
2023-02-21T20:08:33.662Z,99.90
2023-02-21T20:11:15.115Z,99.90
2023-02-21T20:13:44.012Z,99.90
2023-02-21T20:16:15.651Z,99.90
2023-02-21T20:18:45.999Z,99.90
2023-02-21T20:21:19.717Z,99.90
2023-02-21T20:23:49.679Z,99.90
2023-02-21T20:26:19.234Z,99.90
2023-02-21T20:28:49.287Z,99.90
2023-02-21T20:31:18.863Z,99.90
2023-02-21T20:33:48.982Z,99.90
2023-02-21T20:36:18.894Z,99.90
2023-02-21T20:38:47.837Z,99.90
2023-02-21T20:41:18.157Z,99.90
2023-02-21T20:43:52.517Z,99.90
2023-02-21T20:46:25.173Z,99.90
2023-02-21T20:48:55.540Z,99.90
2023-02-21T20:51:30.021Z,99.90
2023-02-21T20:54:00.473Z,99.90
2023-02-21T20:56:34.070Z,99.90
2023-02-21T20:59:05.072Z,99.90
2023-02-21T21:01:35.331Z,99.90
2023-02-21T21:04:08.340Z,99.90
2023-02-21T21:06:36.879Z,99.90
2023-02-21T21:09:05.597Z,99.90
2023-02-21T21:11:35.247Z,99.90
2023-02-21T21:14:04.085Z,99.90
2023-02-21T21:16:34.611Z,99.90
2023-02-21T21:19:05.388Z,99.90
2023-02-21T21:21:34.391Z,99.90
2023-02-21T21:24:07.445Z,99.90
2023-02-21T21:26:36.210Z,99.90
2023-02-21T21:29:09.537Z,99.90
2023-02-21T21:31:39.509Z,99.90
2023-02-21T21:34:09.314Z,99.90
2023-02-21T21:36:38.559Z,99.90
2023-02-21T21:39:07.395Z,99.90
2023-02-21T21:41:37.790Z,99.90
2023-02-21T21:44:07.996Z,99.90
2023-02-21T21:46:39.393Z,99.90
2023-02-21T21:49:10.811Z,99.90
2023-02-21T21:51:39.044Z,99.90
2023-02-21T21:54:07.395Z,99.90
2023-02-21T21:56:36.208Z,99.90
2023-02-21T21:59:04.697Z,99.90
2023-02-21T22:01:34.054Z,99.90
2023-02-21T22:04:02.804Z,99.90
2023-02-21T22:06:32.727Z,99.90
2023-02-21T22:09:01.962Z,99.90
2023-02-21T22:11:30.253Z,99.90
2023-02-21T22:13:58.857Z,99.90
2023-02-21T22:16:27.470Z,99.90
2023-02-21T22:18:56.501Z,99.90
2023-02-21T22:21:25.475Z,99.90
2023-02-21T22:23:56.171Z,99.90
2023-02-21T22:26:25.754Z,99.90
2023-02-21T22:28:54.896Z,99.90
2023-02-21T22:31:24.068Z,99.90
2023-02-21T22:33:52.752Z,99.90
2023-02-21T22:36:21.549Z,99.90
2023-02-21T22:38:51.620Z,99.90
2023-02-21T22:41:25.969Z,99.90
2023-02-21T22:43:55.967Z,99.90
2023-02-21T22:46:27.457Z,99.90
2023-02-21T22:48:56.497Z,99.90
2023-02-21T22:51:27.939Z,99.90
2023-02-21T22:53:58.978Z,99.90
2023-02-21T22:56:30.371Z,99.90
2023-02-21T22:59:01.236Z,99.90
2023-02-21T23:01:33.942Z,99.90
2023-02-21T23:04:15.987Z,99.90
2023-02-21T23:06:44.912Z,99.90
2023-02-21T23:09:15.429Z,99.90
2023-02-21T23:11:48.700Z,99.90
2023-02-21T23:14:19.526Z,99.90
2023-02-21T23:16:48.483Z,99.90
2023-02-21T23:19:19.321Z,99.90
2023-02-21T23:21:50.182Z,99.90
2023-02-21T23:24:21.083Z,99.90
2023-02-21T23:26:54.982Z,99.90
2023-02-21T23:29:26.072Z,99.90
2023-02-21T23:32:10.043Z,99.90
2023-02-21T23:34:41.845Z,99.90
2023-02-21T23:37:13.190Z,99.90
2023-02-21T23:39:42.379Z,99.90
2023-02-21T23:42:17.436Z,99.90
2023-02-21T23:44:46.106Z,99.90
2023-02-21T23:47:15.855Z,99.90
2023-02-21T23:49:44.925Z,99.90
2023-02-21T23:52:16.225Z,99.90
2023-02-21T23:54:47.357Z,99.90
2023-02-21T23:57:17.113Z,99.90
2023-02-21T23:59:46.064Z,99.90
